createdAt,value
2024-02-14T00:01:35.139Z,4.90
2024-02-14T00:04:02.390Z,4.95
2024-02-14T00:06:29.718Z,6.00
2024-02-14T00:08:56.980Z,5.93
2024-02-14T00:11:24.886Z,7.03
2024-02-14T00:13:52.304Z,7.47
2024-02-14T00:16:19.540Z,6.53
2024-02-14T00:18:47.025Z,6.38
2024-02-14T00:21:14.842Z,7.88
2024-02-14T00:23:42.342Z,7.63
2024-02-14T00:26:09.481Z,8.48
2024-02-14T00:28:37.165Z,9.38
2024-02-14T00:31:04.541Z,8.20
2024-02-14T00:33:32.234Z,7.40
2024-02-14T00:35:59.569Z,8.25
2024-02-14T00:38:27.069Z,9.82
2024-02-14T00:40:54.209Z,11.32
2024-02-14T00:43:21.442Z,8.63
2024-02-14T00:45:49.069Z,9.93
2024-02-14T00:48:16.550Z,10.90
2024-02-14T00:50:44.183Z,10.85
2024-02-14T00:53:11.383Z,9.90
2024-02-14T00:55:39.698Z,8.82
2024-02-14T00:58:06.994Z,5.20
2024-02-14T01:00:36.822Z,8.07
2024-02-14T01:03:04.689Z,10.27
2024-02-14T01:05:32.234Z,10.43
2024-02-14T01:07:59.509Z,14.27
2024-02-14T01:10:27.264Z,13.60
2024-02-14T01:12:54.414Z,17.50
2024-02-14T01:15:23.691Z,14.73
2024-02-14T01:17:50.973Z,14.40
2024-02-14T01:20:19.997Z,18.77
2024-02-14T01:22:47.677Z,15.93
2024-02-14T01:25:15.233Z,16.73
2024-02-14T01:27:42.795Z,17.48
2024-02-14T01:30:11.479Z,18.97
2024-02-14T01:32:40.514Z,15.95
2024-02-14T01:35:08.358Z,14.43
2024-02-14T01:37:35.509Z,14.73
2024-02-14T01:40:02.910Z,13.35
2024-02-14T01:42:30.187Z,12.68
2024-02-14T01:44:57.453Z,14.65
2024-02-14T01:47:24.723Z,10.63
2024-02-14T01:49:52.332Z,11.43
2024-02-14T01:52:19.717Z,10.57
2024-02-14T01:54:47.120Z,11.73
2024-02-14T01:57:14.809Z,11.65
2024-02-14T01:59:42.093Z,11.45
2024-02-14T02:02:09.713Z,13.48
2024-02-14T02:04:37.741Z,15.82
2024-02-14T02:07:06.025Z,11.32
2024-02-14T02:09:34.381Z,10.95
2024-02-14T02:12:02.513Z,11.90
2024-02-14T02:14:31.029Z,14.85
2024-02-14T02:16:58.701Z,15.65
2024-02-14T02:19:25.987Z,15.57
2024-02-14T02:21:53.740Z,16.02
2024-02-14T02:24:20.925Z,18.25
2024-02-14T02:26:48.465Z,14.68
2024-02-14T02:29:17.927Z,18.17
2024-02-14T02:31:45.172Z,17.17
2024-02-14T02:34:12.992Z,18.70
2024-02-14T02:36:42.008Z,15.10
2024-02-14T02:39:09.638Z,19.92
2024-02-14T02:41:36.878Z,14.10
2024-02-14T02:44:04.113Z,18.33
2024-02-14T02:46:31.708Z,17.55
2024-02-14T02:49:00.188Z,18.58
2024-02-14T02:51:29.202Z,17.90
2024-02-14T02:53:56.987Z,18.77
2024-02-14T02:56:28.604Z,19.30
2024-02-14T02:58:57.127Z,22.40
2024-02-14T03:01:26.590Z,18.95
2024-02-14T03:03:54.386Z,24.95
2024-02-14T03:06:22.271Z,25.73
2024-02-14T03:08:50.432Z,17.63
2024-02-14T03:11:17.627Z,20.47
2024-02-14T03:13:45.936Z,21.60
2024-02-14T03:16:13.099Z,16.40
2024-02-14T03:18:40.896Z,14.50
2024-02-14T03:21:08.535Z,18.00
2024-02-14T03:23:36.267Z,13.75
2024-02-14T03:26:04.284Z,15.27
2024-02-14T03:28:31.798Z,14.65
2024-02-14T03:30:59.173Z,13.57
2024-02-14T03:33:26.914Z,14.98
2024-02-14T03:35:54.389Z,14.43
2024-02-14T03:38:29.785Z,13.98
2024-02-14T03:40:57.897Z,15.48
2024-02-14T03:43:25.523Z,16.35
2024-02-14T03:45:53.358Z,13.40
2024-02-14T03:48:20.879Z,15.05
2024-02-14T03:50:48.398Z,13.53
2024-02-14T03:53:16.710Z,20.67
2024-02-14T03:55:44.138Z,13.38
2024-02-14T03:58:11.198Z,11.98
2024-02-14T04:00:38.928Z,14.48
2024-02-14T04:03:06.291Z,11.15
2024-02-14T04:05:33.759Z,12.00
2024-02-14T04:08:01.084Z,10.50
2024-02-14T04:10:28.397Z,15.07
2024-02-14T04:12:55.644Z,13.90
2024-02-14T04:15:23.246Z,13.15
2024-02-14T04:17:50.887Z,14.43
2024-02-14T04:20:18.573Z,10.13
2024-02-14T04:22:46.136Z,13.13
2024-02-14T04:25:14.981Z,11.45
2024-02-14T04:27:42.026Z,14.43
2024-02-14T04:30:10.133Z,13.43
2024-02-14T04:32:37.638Z,12.37
2024-02-14T04:35:05.453Z,10.15
2024-02-14T04:37:32.664Z,11.05
2024-02-14T04:40:01.064Z,7.53
2024-02-14T04:42:28.168Z,10.07
2024-02-14T04:44:55.357Z,10.45
2024-02-14T04:47:22.907Z,10.63
2024-02-14T04:49:50.036Z,10.98
2024-02-14T04:52:20.409Z,8.82
2024-02-14T04:54:47.562Z,7.75
2024-02-14T04:57:14.796Z,9.05
2024-02-14T04:59:41.953Z,9.02
2024-02-14T05:02:09.129Z,11.52
2024-02-14T05:04:39.330Z,11.15
2024-02-14T05:07:06.692Z,11.48
2024-02-14T05:09:33.919Z,11.17
2024-02-14T05:12:01.119Z,11.65
2024-02-14T05:14:33.051Z,13.20
2024-02-14T05:17:03.038Z,11.02
2024-02-14T05:19:31.585Z,11.40
2024-02-14T05:21:58.850Z,12.60
2024-02-14T05:24:28.900Z,12.60
2024-02-14T05:26:56.620Z,10.23
2024-02-14T05:29:23.845Z,12.93
2024-02-14T05:31:51.081Z,10.77
2024-02-14T05:34:18.449Z,20.10
2024-02-14T05:36:47.634Z,10.75
2024-02-14T05:39:18.658Z,9.35
2024-02-14T05:41:45.983Z,12.48
2024-02-14T05:44:13.313Z,15.60
2024-02-14T05:46:40.494Z,17.40
2024-02-14T05:49:07.692Z,13.13
2024-02-14T05:51:34.865Z,14.23
2024-02-14T05:54:02.058Z,15.35
2024-02-14T05:56:29.188Z,13.38
2024-02-14T05:58:56.395Z,19.17
2024-02-14T06:01:23.502Z,18.13
2024-02-14T06:03:50.671Z,14.88
2024-02-14T06:06:18.008Z,14.57
2024-02-14T06:08:46.076Z,13.60
2024-02-14T06:11:15.530Z,14.02
2024-02-14T06:13:44.481Z,15.18
2024-02-14T06:16:13.083Z,14.07
2024-02-14T06:18:41.390Z,14.87
2024-02-14T06:21:08.744Z,11.32
2024-02-14T06:23:36.114Z,14.60
2024-02-14T06:26:03.256Z,13.98
2024-02-14T06:28:30.325Z,12.55
2024-02-14T06:31:00.311Z,10.70
2024-02-14T06:33:27.586Z,13.77
2024-02-14T06:35:55.175Z,12.05
2024-02-14T06:38:22.443Z,8.88
2024-02-14T06:40:49.522Z,11.13
2024-02-14T06:43:16.681Z,13.25
2024-02-14T06:45:44.997Z,9.70
2024-02-14T06:48:12.219Z,11.52
2024-02-14T06:50:40.270Z,12.68
2024-02-14T06:53:08.255Z,10.60
2024-02-14T06:55:35.541Z,9.37
2024-02-14T06:58:02.981Z,8.68
2024-02-14T07:00:30.111Z,11.40
2024-02-14T07:02:57.788Z,9.68
2024-02-14T07:05:24.968Z,9.60
2024-02-14T07:07:52.012Z,11.05
2024-02-14T07:10:19.126Z,6.97
2024-02-14T07:12:46.234Z,8.30
2024-02-14T07:15:13.500Z,10.82
2024-02-14T07:17:40.776Z,7.85
2024-02-14T07:20:11.076Z,8.57
2024-02-14T07:22:38.299Z,10.18
2024-02-14T07:25:06.546Z,7.97
2024-02-14T07:27:37.241Z,9.30
2024-02-14T07:30:04.828Z,10.35
2024-02-14T07:32:32.201Z,10.80
2024-02-14T07:34:59.498Z,13.43
2024-02-14T07:37:26.625Z,8.50
2024-02-14T07:39:56.235Z,11.70
2024-02-14T07:42:23.436Z,8.63
2024-02-14T07:44:50.736Z,7.10
2024-02-14T07:47:17.926Z,10.38
2024-02-14T07:49:45.223Z,9.05
2024-02-14T07:52:12.394Z,7.05
2024-02-14T07:54:39.695Z,10.05
2024-02-14T07:57:07.001Z,8.27
2024-02-14T07:59:34.242Z,6.60
2024-02-14T08:02:02.015Z,11.57
2024-02-14T08:04:29.313Z,6.78
2024-02-14T08:06:56.758Z,9.30
2024-02-14T08:09:23.920Z,9.02
2024-02-14T08:11:54.568Z,10.85
2024-02-14T08:14:21.775Z,8.70
2024-02-14T08:16:48.870Z,11.57
2024-02-14T08:19:17.319Z,9.80
2024-02-14T08:21:44.740Z,7.90
2024-02-14T08:24:12.092Z,8.30
2024-02-14T08:26:39.306Z,9.45
2024-02-14T08:29:06.502Z,9.52
2024-02-14T08:31:34.364Z,7.72
2024-02-14T08:34:01.784Z,9.70
2024-02-14T08:36:29.075Z,6.63
2024-02-14T08:38:56.287Z,9.10
2024-02-14T08:41:24.777Z,9.30
2024-02-14T08:43:52.156Z,8.45
2024-02-14T08:46:19.870Z,10.90
2024-02-14T08:48:49.134Z,11.88
2024-02-14T08:51:18.600Z,10.43
2024-02-14T08:53:47.031Z,9.93
2024-02-14T08:56:15.182Z,10.30
2024-02-14T08:58:43.011Z,8.55
2024-02-14T09:01:15.013Z,8.48
2024-02-14T09:03:50.697Z,10.20
2024-02-14T09:06:22.003Z,11.18
2024-02-14T09:08:50.071Z,7.88
2024-02-14T09:11:17.300Z,10.63
2024-02-14T09:13:44.441Z,11.73
2024-02-14T09:16:12.733Z,10.13
2024-02-14T09:18:40.491Z,9.85
2024-02-14T09:21:08.563Z,5.10
2024-02-14T09:23:36.244Z,6.45
2024-02-14T09:26:03.698Z,7.68
2024-02-14T09:28:31.280Z,9.50
2024-02-14T09:30:58.765Z,10.02
2024-02-14T09:33:26.420Z,10.32
2024-02-14T09:35:54.412Z,11.40
2024-02-14T09:38:21.870Z,6.00
2024-02-14T09:40:52.141Z,8.98
2024-02-14T09:43:34.163Z,10.50
2024-02-14T09:46:01.346Z,8.43
2024-02-14T09:48:29.587Z,10.13
2024-02-14T09:50:58.457Z,9.55
2024-02-14T09:53:25.645Z,10.03
2024-02-14T09:55:53.935Z,8.95
2024-02-14T09:58:21.518Z,9.65
2024-02-14T10:00:48.705Z,11.02
2024-02-14T10:03:17.471Z,14.70
2024-02-14T10:05:44.816Z,7.85
2024-02-14T10:08:12.698Z,7.10
2024-02-14T10:10:39.973Z,7.23
2024-02-14T10:13:07.949Z,7.78
2024-02-14T10:15:35.335Z,7.55
2024-02-14T10:18:05.008Z,9.48
2024-02-14T10:20:35.511Z,9.68
2024-02-14T10:23:06.719Z,12.25
2024-02-14T10:25:36.258Z,8.07
2024-02-14T10:28:10.055Z,6.47
2024-02-14T10:30:42.533Z,8.43
2024-02-14T10:33:20.123Z,6.38
2024-02-14T10:35:54.217Z,8.37
2024-02-14T10:38:24.629Z,5.97
2024-02-14T10:40:53.633Z,9.13
2024-02-14T10:43:20.728Z,6.20
2024-02-14T10:45:48.109Z,4.65
2024-02-14T10:48:18.586Z,4.75
2024-02-14T10:50:48.190Z,8.45
2024-02-14T10:53:17.200Z,8.43
2024-02-14T10:55:48.995Z,3.77
2024-02-14T10:58:18.210Z,11.93
2024-02-14T11:00:48.921Z,8.90
2024-02-14T11:03:17.093Z,7.63
2024-02-14T11:05:47.062Z,5.97
2024-02-14T11:08:24.773Z,5.55
2024-02-14T11:11:00.423Z,6.38
2024-02-14T11:13:32.566Z,4.68
2024-02-14T11:16:03.591Z,8.23
2024-02-14T11:18:38.097Z,7.22
2024-02-14T11:21:06.297Z,6.38
2024-02-14T11:23:34.177Z,6.25
2024-02-14T11:26:06.678Z,6.00
2024-02-14T11:28:41.931Z,5.40
2024-02-14T11:31:11.480Z,5.22
2024-02-14T11:33:38.774Z,6.20
2024-02-14T11:36:13.056Z,4.25
2024-02-14T11:38:42.631Z,4.40
2024-02-14T11:41:12.227Z,4.20
2024-02-14T11:43:41.047Z,5.57
2024-02-14T11:46:11.492Z,5.03
2024-02-14T11:48:41.281Z,6.25
2024-02-14T11:51:09.534Z,5.60
2024-02-14T11:53:36.846Z,7.28
2024-02-14T11:56:04.425Z,7.43
2024-02-14T11:58:32.965Z,9.57
2024-02-14T12:01:00.239Z,7.72
2024-02-14T12:03:27.833Z,6.05
2024-02-14T12:05:55.609Z,4.13
2024-02-14T12:08:25.831Z,7.97
2024-02-14T12:10:53.168Z,4.63
2024-02-14T12:13:22.675Z,4.97
2024-02-14T12:15:52.602Z,8.55
2024-02-14T12:18:22.260Z,5.55
2024-02-14T12:20:56.177Z,4.57
2024-02-14T12:23:28.034Z,4.88
2024-02-14T12:25:55.395Z,5.22
2024-02-14T12:28:22.820Z,5.90
2024-02-14T12:30:53.982Z,4.50
2024-02-14T12:33:21.194Z,4.38
2024-02-14T12:35:52.793Z,6.50
2024-02-14T12:38:21.464Z,7.75
2024-02-14T12:40:48.616Z,6.07
2024-02-14T12:43:17.380Z,5.95
2024-02-14T12:45:45.343Z,4.75
2024-02-14T12:48:15.276Z,7.15
2024-02-14T12:50:49.246Z,5.93
2024-02-14T12:53:16.461Z,4.80
2024-02-14T12:55:43.584Z,5.60
2024-02-14T12:58:13.731Z,5.68
2024-02-14T13:00:40.851Z,7.38
2024-02-14T13:03:13.366Z,4.97
2024-02-14T13:05:42.347Z,6.25
2024-02-14T13:08:12.684Z,5.25
2024-02-14T13:10:40.165Z,9.65
2024-02-14T13:13:07.349Z,7.72
2024-02-14T13:15:34.899Z,5.88
2024-02-14T13:18:06.499Z,5.07
2024-02-14T13:20:34.474Z,4.78
2024-02-14T13:23:02.021Z,7.18
2024-02-14T13:25:29.375Z,4.63
2024-02-14T13:27:56.927Z,8.27
2024-02-14T13:30:24.282Z,11.32
2024-02-14T13:32:51.578Z,7.82
2024-02-14T13:35:18.907Z,8.93
2024-02-14T13:37:46.539Z,16.02
2024-02-14T13:40:15.400Z,12.50
2024-02-14T13:42:43.608Z,14.00
2024-02-14T13:45:13.190Z,15.05
2024-02-14T13:47:41.616Z,8.70
2024-02-14T13:50:12.139Z,37.88
2024-02-14T13:52:39.967Z,14.15
2024-02-14T13:55:09.285Z,15.70
2024-02-14T13:57:40.438Z,36.28
2024-02-14T14:00:13.297Z,9.20
2024-02-14T14:02:43.541Z,20.42
2024-02-14T14:05:12.668Z,6.35
2024-02-14T14:07:53.641Z,5.57
2024-02-14T14:10:27.753Z,5.85
2024-02-14T14:12:56.187Z,4.97
2024-02-14T14:15:24.513Z,8.68
2024-02-14T14:17:52.926Z,4.05
2024-02-14T14:20:21.336Z,4.83
2024-02-14T14:22:51.515Z,8.95
2024-02-14T14:25:19.723Z,5.60
2024-02-14T14:27:47.002Z,4.72
2024-02-14T14:30:15.042Z,5.50
2024-02-14T14:32:42.484Z,6.20
2024-02-14T14:35:12.468Z,4.28
2024-02-14T14:37:40.135Z,5.97
2024-02-14T14:40:10.114Z,6.97
2024-02-14T14:42:38.270Z,3.97
2024-02-14T14:45:06.251Z,7.40
2024-02-14T14:47:33.713Z,7.97
2024-02-14T14:50:01.217Z,6.50
2024-02-14T14:52:28.573Z,4.07
2024-02-14T14:54:55.817Z,6.20
2024-02-14T14:57:25.362Z,6.50
2024-02-14T14:59:54.876Z,10.43
2024-02-14T15:02:23.931Z,14.02
2024-02-14T15:04:52.281Z,12.40
2024-02-14T15:07:21.644Z,5.30
2024-02-14T15:09:48.983Z,6.97
2024-02-14T15:12:16.723Z,5.18
2024-02-14T15:14:44.153Z,6.10
2024-02-14T15:17:11.877Z,8.20
2024-02-14T15:19:39.023Z,5.57
2024-02-14T15:22:07.882Z,5.17
2024-02-14T15:24:37.328Z,7.18
2024-02-14T15:27:07.489Z,6.80
2024-02-14T15:29:53.567Z,8.02
2024-02-14T15:32:40.498Z,6.38
2024-02-14T15:35:10.220Z,6.97
2024-02-14T15:37:37.467Z,5.30
2024-02-14T15:40:06.027Z,6.63
2024-02-14T15:42:34.118Z,5.93
2024-02-14T15:45:01.540Z,4.70
2024-02-14T15:47:28.720Z,6.28
2024-02-14T15:49:56.653Z,12.35
2024-02-14T15:52:23.850Z,9.30
2024-02-14T15:54:53.582Z,6.15
2024-02-14T15:57:21.027Z,5.20
2024-02-14T15:59:48.535Z,7.28
2024-02-14T16:02:15.643Z,7.72
2024-02-14T16:04:43.293Z,12.25
2024-02-14T16:07:10.328Z,15.98
2024-02-14T16:09:38.468Z,9.25
2024-02-14T16:12:06.164Z,20.63
2024-02-14T16:14:33.948Z,29.00
2024-02-14T16:17:01.110Z,9.13
2024-02-14T16:19:28.920Z,11.63
2024-02-14T16:22:05.789Z,11.65
2024-02-14T16:24:38.493Z,10.07
2024-02-14T16:27:06.536Z,12.23
2024-02-14T16:29:34.151Z,15.10
2024-02-14T16:32:01.573Z,22.65
2024-02-14T16:34:29.451Z,28.38
2024-02-14T16:36:57.047Z,28.80
2024-02-14T16:39:35.379Z,34.20
2024-02-14T16:42:09.966Z,21.00
2024-02-14T16:44:40.171Z,20.65
2024-02-14T16:47:08.260Z,21.52
2024-02-14T16:49:36.231Z,18.42
2024-02-14T16:52:04.764Z,15.15
2024-02-14T16:54:33.325Z,12.07
2024-02-14T16:57:11.952Z,8.77
2024-02-14T16:59:47.040Z,9.60
2024-02-14T17:02:15.029Z,11.00
2024-02-14T17:04:45.281Z,16.13
2024-02-14T17:07:16.719Z,17.63
2024-02-14T17:09:44.409Z,20.38
2024-02-14T17:12:12.276Z,22.42
2024-02-14T17:14:42.476Z,17.77
2024-02-14T17:17:11.575Z,13.63
2024-02-14T17:19:39.201Z,7.47
2024-02-14T17:22:16.764Z,12.55
2024-02-14T17:24:49.432Z,10.68
2024-02-14T17:27:17.425Z,12.32
2024-02-14T17:29:45.251Z,10.50
2024-02-14T17:32:20.045Z,10.20
2024-02-14T17:34:55.160Z,9.93
2024-02-14T17:37:22.312Z,10.63
2024-02-14T17:39:49.578Z,11.77
2024-02-14T17:42:16.838Z,15.82
2024-02-14T17:44:44.946Z,14.95
2024-02-14T17:47:11.996Z,28.90
2024-02-14T17:49:39.786Z,13.60
2024-02-14T17:52:07.071Z,14.98
2024-02-14T17:54:36.700Z,15.80
2024-02-14T17:57:03.933Z,20.17
2024-02-14T17:59:31.254Z,26.13
2024-02-14T18:01:58.514Z,26.05
2024-02-14T18:04:26.557Z,28.33
2024-02-14T18:06:53.694Z,30.73
2024-02-14T18:09:20.959Z,32.92
2024-02-14T18:11:48.155Z,32.25
2024-02-14T18:14:15.592Z,30.65
2024-02-14T18:16:42.734Z,37.63
2024-02-14T18:19:11.037Z,35.80
2024-02-14T18:21:38.362Z,32.97
2024-02-14T18:24:07.385Z,32.83
2024-02-14T18:26:34.732Z,30.58
2024-02-14T18:29:01.978Z,32.00
2024-02-14T18:31:29.687Z,29.05
2024-02-14T18:33:56.955Z,40.15
2024-02-14T18:36:24.448Z,29.00
2024-02-14T18:38:54.285Z,24.05
2024-02-14T18:41:21.798Z,23.40
2024-02-14T18:43:48.925Z,22.27
2024-02-14T18:46:15.987Z,51.25
2024-02-14T18:48:43.469Z,48.50
2024-02-14T18:51:11.160Z,51.15
2024-02-14T18:53:38.969Z,38.45
2024-02-14T18:56:06.375Z,38.55
2024-02-14T18:58:34.557Z,30.10
2024-02-14T19:01:01.653Z,27.98
2024-02-14T19:03:29.276Z,26.50
2024-02-14T19:05:56.626Z,45.72
2024-02-14T19:08:24.392Z,42.63
2024-02-14T19:10:51.478Z,46.45
2024-02-14T19:13:18.987Z,55.90
2024-02-14T19:15:46.460Z,42.90
2024-02-14T19:18:14.778Z,36.90
2024-02-14T19:20:44.859Z,28.73
2024-02-14T19:23:12.418Z,35.33
2024-02-14T19:25:39.474Z,44.15
2024-02-14T19:28:10.717Z,39.35
2024-02-14T19:30:37.880Z,33.83
2024-02-14T19:33:05.254Z,39.33
2024-02-14T19:35:32.569Z,47.28
2024-02-14T19:37:59.656Z,23.05
2024-02-14T19:40:26.829Z,25.77
2024-02-14T19:42:53.915Z,24.43
2024-02-14T19:45:21.088Z,35.93
2024-02-14T19:47:50.714Z,42.53
2024-02-14T19:50:21.213Z,33.60
2024-02-14T19:52:48.812Z,35.70
2024-02-14T19:55:15.954Z,33.53
2024-02-14T19:57:43.957Z,35.42
2024-02-14T20:00:11.794Z,42.58
2024-02-14T20:02:43.137Z,36.28
2024-02-14T20:05:11.593Z,35.58
2024-02-14T20:07:39.129Z,36.63
2024-02-14T20:10:07.549Z,45.90
2024-02-14T20:12:36.800Z,44.35
2024-02-14T20:15:07.350Z,61.60
2024-02-14T20:17:35.507Z,67.30
2024-02-14T20:20:06.147Z,20.00
2024-02-14T20:22:34.874Z,48.40
2024-02-14T20:25:02.326Z,32.63
2024-02-14T20:27:32.028Z,44.95
2024-02-14T20:29:59.906Z,32.17
2024-02-14T20:32:28.124Z,39.55
2024-02-14T20:34:55.754Z,40.50
2024-02-14T20:37:23.405Z,32.20
2024-02-14T20:39:50.873Z,35.45
2024-02-14T20:42:18.570Z,48.53
2024-02-14T20:44:45.722Z,35.35
2024-02-14T20:47:15.064Z,43.17
2024-02-14T20:49:42.221Z,37.70
2024-02-14T20:52:12.930Z,44.08
2024-02-14T20:54:40.280Z,48.78
2024-02-14T20:57:07.515Z,33.07
2024-02-14T20:59:35.801Z,35.47
2024-02-14T21:02:07.627Z,36.58
2024-02-14T21:04:39.294Z,34.37
2024-02-14T21:07:06.985Z,43.20
2024-02-14T21:09:34.356Z,38.33
2024-02-14T21:12:02.834Z,28.67
2024-02-14T21:14:30.560Z,29.55
2024-02-14T21:16:58.187Z,27.92
2024-02-14T21:19:25.743Z,27.70
2024-02-14T21:21:53.591Z,21.40
2024-02-14T21:24:20.702Z,20.50
2024-02-14T21:27:16.442Z,27.70
2024-02-14T21:29:44.768Z,20.20
2024-02-14T21:32:12.258Z,22.93
2024-02-14T21:34:40.037Z,24.75
2024-02-14T21:37:07.286Z,28.80
2024-02-14T21:39:34.997Z,24.10
2024-02-14T21:42:02.798Z,23.52
2024-02-14T21:44:33.364Z,31.20
2024-02-14T21:47:00.447Z,31.13
2024-02-14T21:49:28.806Z,29.33
2024-02-14T21:51:58.644Z,20.67
2024-02-14T21:54:26.216Z,20.35
2024-02-14T21:56:53.387Z,19.83
2024-02-14T21:59:20.573Z,20.98
2024-02-14T22:01:47.756Z,19.25
2024-02-14T22:04:14.842Z,24.33
2024-02-14T22:06:42.591Z,27.15
2024-02-14T22:09:10.614Z,24.27
2024-02-14T22:11:38.058Z,26.38
2024-02-14T22:14:05.636Z,26.73
2024-02-14T22:16:33.172Z,27.05
2024-02-14T22:19:01.730Z,23.13
2024-02-14T22:21:30.259Z,25.55
2024-02-14T22:23:57.458Z,25.67
2024-02-14T22:26:25.467Z,21.50
2024-02-14T22:28:53.636Z,19.80
2024-02-14T22:31:21.011Z,19.67
2024-02-14T22:33:51.362Z,23.45
2024-02-14T22:36:18.976Z,22.98
2024-02-14T22:38:46.325Z,22.23
2024-02-14T22:41:15.665Z,22.63
2024-02-14T22:43:42.777Z,14.85
2024-02-14T22:46:13.283Z,18.02
2024-02-14T22:48:41.538Z,20.77
2024-02-14T22:51:10.099Z,15.70
2024-02-14T22:53:37.238Z,15.85
2024-02-14T22:56:05.301Z,17.25
2024-02-14T22:58:32.549Z,19.17
2024-02-14T23:00:59.876Z,21.40
2024-02-14T23:03:28.266Z,25.65
2024-02-14T23:05:56.773Z,17.33
2024-02-14T23:08:24.882Z,17.00
2024-02-14T23:10:52.667Z,17.30
2024-02-14T23:13:19.750Z,16.98
2024-02-14T23:15:48.171Z,17.87
2024-02-14T23:18:15.346Z,14.93
2024-02-14T23:20:45.373Z,13.98
2024-02-14T23:23:12.538Z,14.93
2024-02-14T23:25:40.324Z,15.82
2024-02-14T23:28:07.500Z,14.27
2024-02-14T23:30:36.435Z,15.80
2024-02-14T23:33:04.941Z,15.52
2024-02-14T23:35:32.268Z,15.48
2024-02-14T23:38:00.189Z,15.05
2024-02-14T23:40:27.343Z,11.77
2024-02-14T23:43:01.155Z,13.45
2024-02-14T23:45:28.566Z,15.85
2024-02-14T23:47:56.004Z,16.02
2024-02-14T23:50:23.319Z,13.13
2024-02-14T23:52:50.396Z,13.05
2024-02-14T23:55:18.361Z,14.43
2024-02-14T23:57:45.709Z,12.50
